Clarno, Oregon
Current Conditions -  °F | °C
As of 6:55 AM on Thursday 30 Oct 2014 (Local Time) from KS39 Reporting Station
Broken Clouds Broken Clouds  
Wind Chill: 48°   Ceiling: 9000
Heat Index: 48°   Visibility: 10mi
Dew Point: 46°   Wind: 0mph
Humidity: 93%   Direction: NA
Pressure: 30.03"   Gusts: NA
Location:  44.8891°N, 120.795°W
Report Text: KS39 301355Z AUTO 00000KT 10SM SCT055 BKN090 09/08 A3003 RMK AO2
Loading
Personal Weather Stations






























Interactive Weather Map
Tropical Storm Tracking
New forecast layout! Learn more

10-Day Weather Forecast

Advertisements
Track Severe Weather on mobile